Hauptseite
METAR-TAF:

METAR-TAF

Flughäfen :

Flughafen Linz

Linz, Österreich

Breite: 48-14N, Länge: 014-11E, Höhe: 298 m

Beobachtung

Neuester Wetterbericht von vor 22 Minuten, um 07:20 UTC
Wind 7 kt aus Ost, variierte zwischen Ost/Nordost und Südost
Temperatur 21°C
Luftfeuchtigkeit 60%
Luftdruck 1019 hPa
Sichtweite 10 km oder mehr

METAR: LOWL 240720Z AUTO 10007KT 060V140 9999 NCD 21/13 Q1019 NOSIG

Zeit: 09:42 (07:42 UTC)

Prognose

Neuester Wetterbericht von vor 2 Stunden und 27 Minuten, um 05:15 UTC
Gültige Prognose vom 24 um 06 UTC bis 25 um 06 UTC
Wind 10 kt aus Ost
Sichtweite 10 km oder mehr
Leicht bewölkt in der Höhe von 5000 ft

TAF: LOWL 240515Z 2406/2506 09010KT 9999 FEW050 TX26/2415Z TN16/2504Z

Wetterbeobachtungen und Prognosen von mehr als 4000 Flughäfen (METAR und TAF Bericht).

Die verfügbaren Stationen werden durch gelbe und rote Markierungen auf der Karte dargestellt.

Führen Sie die Maus auf sie, um den Namen der Station zu sehen.

Darauf klicken, um die Beobachtung von Wetterbeobachtungen und Prognosen zu sehen.

Um die Karte zu ändern : klicken Sie auf den grünen Tasten mit einem schwarzen Kreuz Zum Vergrößern, auf den grünen Button mit einem Gedankenstrich zu verkleinern, oder auf die grünen Pfeile für benachbarte Karten.


METAR-TAF: